createdAt,value
2017-01-11T00:00:07.188Z,5.58
2017-01-11T00:00:47.683Z,5.61
2017-01-11T00:01:28.303Z,5.72
2017-01-11T00:02:08.785Z,5.67
2017-01-11T00:02:49.319Z,5.64
2017-01-11T00:03:29.827Z,5.63
2017-01-11T00:04:10.355Z,5.64
2017-01-11T00:04:50.884Z,5.6
2017-01-11T00:05:31.407Z,5.67
2017-01-11T00:06:11.885Z,5.58
2017-01-11T00:06:52.438Z,5.65
2017-01-11T00:07:32.927Z,5.61
2017-01-11T00:08:13.526Z,5.61
2017-01-11T00:08:53.971Z,5.58
2017-01-11T00:09:34.523Z,5.67
2017-01-11T00:10:15.031Z,5.68
2017-01-11T00:10:55.544Z,5.64
2017-01-11T00:14:41.108Z,5.51
2017-01-11T00:15:21.558Z,5.48
2017-01-11T00:16:02.090Z,5.39
2017-01-11T00:16:42.606Z,5.48
2017-01-11T00:17:23.155Z,5.38
2017-01-11T00:18:03.655Z,5.53
2017-01-11T00:18:44.198Z,5.42
2017-01-11T00:19:24.703Z,5.48
2017-01-11T00:20:05.241Z,5.54
2017-01-11T00:20:45.786Z,5.51
2017-01-11T00:21:26.291Z,5.64
2017-01-11T00:22:06.831Z,5.56
2017-01-11T00:22:47.369Z,5.57
2017-01-11T00:23:27.909Z,5.6
2017-01-11T00:24:08.482Z,5.72
2017-01-11T00:24:48.991Z,5.72
2017-01-11T00:25:29.510Z,5.67
2017-01-11T00:26:10.012Z,5.65
2017-01-11T00:26:50.557Z,5.65
2017-01-11T00:27:31.044Z,5.53
2017-01-11T00:28:11.610Z,5.58
2017-01-11T00:28:52.111Z,5.65
2017-01-11T00:29:32.640Z,5.54
2017-01-11T00:30:13.151Z,5.63
2017-01-11T00:30:53.697Z,5.56
2017-01-11T00:31:34.248Z,5.56
2017-01-11T00:32:14.709Z,5.58
2017-01-11T00:32:55.315Z,5.6
2017-01-11T00:33:35.793Z,5.64
2017-01-11T00:34:16.298Z,5.64
2017-01-11T00:34:56.791Z,5.6
2017-01-11T00:35:37.343Z,5.57
2017-01-11T00:36:17.872Z,5.58
2017-01-11T00:36:58.362Z,5.54
2017-01-11T00:37:38.882Z,5.63
2017-01-11T00:38:19.405Z,5.68
2017-01-11T00:38:59.919Z,5.68
2017-01-11T00:39:40.490Z,5.51
2017-01-11T00:40:20.963Z,5.54
2017-01-11T00:41:01.509Z,5.6
2017-01-11T00:41:42.018Z,5.65
2017-01-11T00:42:22.544Z,5.58
2017-01-11T00:43:03.053Z,5.64
2017-01-11T00:43:43.573Z,5.54
2017-01-11T00:44:24.097Z,5.54
2017-01-11T00:45:04.629Z,5.42
2017-01-11T00:45:45.184Z,5.51
2017-01-11T00:46:25.673Z,5.56
2017-01-11T00:47:06.192Z,5.56
2017-01-11T00:47:46.773Z,5.49
2017-01-11T00:48:27.296Z,5.48
2017-01-11T00:49:07.760Z,5.45
2017-01-11T00:49:48.315Z,5.51
2017-01-11T00:50:28.868Z,5.48
2017-01-11T00:51:09.392Z,5.54
2017-01-11T00:51:49.927Z,5.57
2017-01-11T00:52:30.443Z,5.48
2017-01-11T00:53:10.940Z,5.64
2017-01-11T00:53:51.472Z,5.63
2017-01-11T00:54:31.970Z,5.61
2017-01-11T00:55:12.543Z,5.63
2017-01-11T00:55:53.087Z,5.56
2017-01-11T00:56:33.602Z,5.53
2017-01-11T00:57:14.095Z,5.58
2017-01-11T00:57:54.617Z,5.46
2017-01-11T00:58:35.155Z,5.56
2017-01-11T00:59:15.652Z,5.57
2017-01-11T00:59:56.171Z,5.57
2017-01-11T01:00:36.717Z,5.56
2017-01-11T01:01:17.260Z,5.61
2017-01-11T01:01:57.762Z,5.46
2017-01-11T01:02:38.289Z,5.4
2017-01-11T01:03:18.972Z,5.45
2017-01-11T01:03:59.502Z,5.58
2017-01-11T01:04:40.092Z,5.46
2017-01-11T01:05:20.585Z,5.49
2017-01-11T01:06:01.106Z,5.49
2017-01-11T01:06:41.633Z,5.54
2017-01-11T01:07:22.164Z,5.61
2017-01-11T01:08:02.706Z,5.56
2017-01-11T01:08:43.231Z,5.63
2017-01-11T01:09:23.720Z,5.56
2017-01-11T01:11:36.790Z,5.56
2017-01-11T01:12:17.121Z,5.53
2017-01-11T01:12:57.641Z,5.63
2017-01-11T01:13:38.188Z,5.63
2017-01-11T01:14:18.728Z,5.56
2017-01-11T01:14:59.280Z,5.6
2017-01-11T01:15:39.808Z,5.6
2017-01-11T01:16:20.355Z,5.57
2017-01-11T01:17:00.897Z,5.57
2017-01-11T01:17:41.445Z,5.61
2017-01-11T01:18:21.947Z,5.53
2017-01-11T01:19:02.470Z,5.6
2017-01-11T01:19:43.006Z,5.6
2017-01-11T01:20:23.510Z,5.54
2017-01-11T01:21:04.051Z,5.4
2017-01-11T01:21:44.583Z,5.48
2017-01-11T01:22:25.083Z,5.48
2017-01-11T01:23:05.592Z,5.51
2017-01-11T01:23:46.144Z,5.6
2017-01-11T01:24:26.668Z,5.53
2017-01-11T01:25:07.152Z,5.57
2017-01-11T01:25:47.693Z,5.67
2017-01-11T01:26:28.179Z,5.54
2017-01-11T01:27:08.773Z,5.51
2017-01-11T01:27:49.317Z,5.46
2017-01-11T01:28:29.840Z,5.51
2017-01-11T01:29:10.353Z,5.53
2017-01-11T01:29:50.882Z,5.53
2017-01-11T01:30:31.456Z,5.49
2017-01-11T01:31:11.943Z,5.4
2017-01-11T01:31:52.440Z,5.25
2017-01-11T01:32:32.959Z,5.28
2017-01-11T01:33:13.512Z,5.36
2017-01-11T01:33:54.056Z,5.39
2017-01-11T01:34:34.582Z,5.45
2017-01-11T01:35:15.092Z,5.42
2017-01-11T01:35:55.642Z,5.4
2017-01-11T01:36:36.155Z,5.38
2017-01-11T01:37:16.724Z,5.46
2017-01-11T01:37:57.222Z,5.39
2017-01-11T01:38:37.778Z,5.46
2017-01-11T01:39:18.308Z,5.51
2017-01-11T01:39:58.838Z,5.54
2017-01-11T01:40:39.351Z,5.49
2017-01-11T01:41:19.922Z,5.56
2017-01-11T01:42:00.411Z,5.51
2017-01-11T01:42:40.928Z,5.57
2017-01-11T01:43:21.443Z,5.49
2017-01-11T01:44:01.968Z,5.49
2017-01-11T01:44:42.499Z,5.6
2017-01-11T01:45:23.062Z,5.57
2017-01-11T01:46:03.592Z,5.54
2017-01-11T01:49:48.597Z,5.49
2017-01-11T01:50:29.093Z,5.38
2017-01-11T01:51:09.642Z,5.39
2017-01-11T01:51:50.200Z,5.42
2017-01-11T01:52:30.691Z,5.45
2017-01-11T01:53:11.241Z,5.36
2017-01-11T01:53:51.772Z,5.27
2017-01-11T01:54:32.266Z,5.43
2017-01-11T01:55:12.768Z,5.35
2017-01-11T01:55:53.280Z,5.38
2017-01-11T01:56:33.800Z,5.43
2017-01-11T01:57:14.339Z,5.46
2017-01-11T01:57:54.864Z,5.33
2017-01-11T01:58:35.382Z,5.4
2017-01-11T01:59:15.953Z,5.43
2017-01-11T01:59:56.459Z,5.43
2017-01-11T02:00:36.988Z,5.35
2017-01-11T02:01:17.492Z,5.31
2017-01-11T02:01:58.042Z,5.35
2017-01-11T02:02:38.525Z,5.42
2017-01-11T02:03:19.053Z,5.45
2017-01-11T02:03:59.563Z,5.42
2017-01-11T02:04:40.113Z,5.45
2017-01-11T02:05:20.592Z,5.46
2017-01-11T02:06:01.114Z,5.36
2017-01-11T02:06:41.647Z,5.24
2017-01-11T02:07:22.172Z,5.24
2017-01-11T02:10:42.447Z,5.27
2017-01-11T02:11:22.877Z,5.18
2017-01-11T02:12:03.399Z,5.31
2017-01-11T02:12:43.952Z,5.2
2017-01-11T02:13:24.506Z,5.17
2017-01-11T02:14:05.061Z,5.09
2017-01-11T02:14:45.611Z,5.13
2017-01-11T02:15:26.146Z,5.17
2017-01-11T02:16:06.656Z,5.21
2017-01-11T02:16:47.171Z,5.24
2017-01-11T02:17:27.710Z,5.3
2017-01-11T02:18:08.172Z,5.28
2017-01-11T02:18:48.773Z,5.31
2017-01-11T02:19:29.250Z,5.39
2017-01-11T02:20:09.801Z,5.33
2017-01-11T02:20:50.338Z,5.27
2017-01-11T02:21:30.844Z,5.28
2017-01-11T02:22:11.345Z,5.33
2017-01-11T02:22:51.874Z,5.36
2017-01-11T02:23:32.384Z,5.12
2017-01-11T02:24:12.918Z,5.17
2017-01-11T02:24:53.416Z,5.3
2017-01-11T02:25:33.978Z,5.27
2017-01-11T02:26:14.508Z,5.2
2017-01-11T02:26:55.062Z,5.28
2017-01-11T02:27:35.584Z,5.3
2017-01-11T02:28:16.096Z,5.35
2017-01-11T02:28:56.630Z,5.35
2017-01-11T02:29:37.161Z,5.22
2017-01-11T02:30:17.691Z,5.3
2017-01-11T02:30:58.233Z,5.4
2017-01-11T02:31:38.769Z,5.3
2017-01-11T02:32:19.268Z,5.3
2017-01-11T02:32:59.809Z,5.38
2017-01-11T02:33:40.340Z,5.33
2017-01-11T02:34:20.866Z,5.38
2017-01-11T02:35:01.402Z,5.28
2017-01-11T02:35:41.890Z,5.2
2017-01-11T02:36:22.429Z,5.28
2017-01-11T02:37:02.904Z,5.17
2017-01-11T02:37:43.457Z,5.3
2017-01-11T02:38:24.011Z,5.31
2017-01-11T02:39:04.536Z,5.27
2017-01-11T02:39:45.043Z,5.2
2017-01-11T02:40:25.588Z,5.06
2017-01-11T02:41:06.107Z,5.13
2017-01-11T02:41:46.650Z,5.25
2017-01-11T02:42:27.138Z,5.21
2017-01-11T02:43:07.656Z,5.24
2017-01-11T02:43:48.166Z,5.27
2017-01-11T02:44:28.684Z,5.33
2017-01-11T02:45:09.192Z,5.25
2017-01-11T02:45:49.749Z,5.24
2017-01-11T02:46:30.258Z,5.3
2017-01-11T02:47:10.804Z,5.31
2017-01-11T02:47:51.337Z,5.3
2017-01-11T02:48:31.836Z,5.27
2017-01-11T02:49:12.405Z,5.25
2017-01-11T02:51:25.252Z,5.25
2017-01-11T02:52:05.687Z,5.33
2017-01-11T02:52:46.215Z,5.35
2017-01-11T02:53:26.741Z,5.25
2017-01-11T02:54:07.278Z,5.22
2017-01-11T02:54:47.807Z,5.1
2017-01-11T02:55:28.329Z,5.25
2017-01-11T02:56:08.876Z,5.22
2017-01-11T02:56:49.375Z,5.2
2017-01-11T02:57:29.921Z,5.28
2017-01-11T02:58:10.444Z,5.25
2017-01-11T02:58:50.982Z,5.27
2017-01-11T02:59:31.473Z,5.35
2017-01-11T03:00:12.007Z,5.31
2017-01-11T03:00:52.545Z,5.35
2017-01-11T03:01:33.024Z,5.06
2017-01-11T03:02:13.560Z,5.13
2017-01-11T03:02:54.070Z,5.03
2017-01-11T03:03:34.624Z,5.04
2017-01-11T03:04:15.141Z,5.07
2017-01-11T03:04:55.688Z,5.09
2017-01-11T03:07:08.438Z,5.13
2017-01-11T03:07:48.947Z,5.18
2017-01-11T03:08:29.479Z,5.22
2017-01-11T03:09:10.021Z,5.33
2017-01-11T03:09:50.568Z,5.27
2017-01-11T03:10:31.074Z,5.09
2017-01-11T03:11:11.612Z,5.21
2017-01-11T03:11:52.101Z,5.24
2017-01-11T03:12:32.618Z,5.2
2017-01-11T03:13:13.135Z,5.17
2017-01-11T03:13:53.641Z,5.21
2017-01-11T03:14:34.204Z,5.15
2017-01-11T03:15:14.746Z,5.09
2017-01-11T03:15:55.296Z,5.06
2017-01-11T03:16:35.751Z,5.02
2017-01-11T03:17:16.309Z,5.03
2017-01-11T03:17:56.844Z,5.02
2017-01-11T03:18:37.353Z,5.03
2017-01-11T03:19:17.894Z,5.02
2017-01-11T03:19:58.390Z,5.07
2017-01-11T03:20:38.941Z,5.07
2017-01-11T03:21:19.443Z,5.04
2017-01-11T03:21:59.979Z,5.12
2017-01-11T03:22:40.518Z,5.1
2017-01-11T03:23:21.061Z,5.13
2017-01-11T03:24:01.600Z,5.24
2017-01-11T03:24:42.120Z,5.07
2017-01-11T03:25:22.670Z,5.12
2017-01-11T03:26:03.218Z,5.2
2017-01-11T03:26:43.752Z,5.1
2017-01-11T03:27:24.290Z,5.09
2017-01-11T03:28:04.835Z,5.12
2017-01-11T03:28:45.387Z,5.18
2017-01-11T03:29:25.898Z,5.22
2017-01-11T03:30:06.452Z,5.17
2017-01-11T03:30:47.020Z,5.22
2017-01-11T03:31:27.574Z,5.21
2017-01-11T03:32:08.105Z,5.22
2017-01-11T03:32:48.625Z,5.27
2017-01-11T03:33:29.174Z,5.27
2017-01-11T03:34:09.710Z,5.3
2017-01-11T03:34:50.229Z,5.24
2017-01-11T03:35:30.806Z,5.27
2017-01-11T03:36:11.337Z,5.21
2017-01-11T03:36:51.963Z,5.24
2017-01-11T03:37:32.544Z,5.24
2017-01-11T03:38:13.061Z,5.2
2017-01-11T03:38:53.599Z,5.25
2017-01-11T03:39:34.159Z,5.24
2017-01-11T03:40:14.687Z,5.3
2017-01-11T03:40:55.232Z,5.36
2017-01-11T03:41:35.756Z,5.35
2017-01-11T03:42:16.315Z,5.24
2017-01-11T03:42:56.836Z,5.31
2017-01-11T03:43:37.409Z,5.3
2017-01-11T03:44:17.939Z,5.24
2017-01-11T03:44:58.502Z,5.27
2017-01-11T03:45:39.046Z,5.25
2017-01-11T03:46:19.598Z,5.22
2017-01-11T03:47:00.107Z,5.33
2017-01-11T03:47:40.659Z,5.42
2017-01-11T03:48:21.211Z,5.36
2017-01-11T03:49:01.744Z,5.28
2017-01-11T03:49:42.304Z,5.27
2017-01-11T03:50:22.844Z,5.4
2017-01-11T03:51:03.389Z,5.35
2017-01-11T03:51:43.917Z,5.27
2017-01-11T03:52:24.511Z,5.25
2017-01-11T03:53:05.017Z,5.2
2017-01-11T03:53:45.554Z,5.31
2017-01-11T03:54:26.101Z,5.42
2017-01-11T03:55:06.593Z,5.4
2017-01-11T03:55:47.142Z,5.27
2017-01-11T03:56:27.671Z,5.24
2017-01-11T03:57:08.214Z,5.24
2017-01-11T03:57:48.759Z,5.36
2017-01-11T03:58:29.337Z,5.4
2017-01-11T03:59:09.839Z,5.39
2017-01-11T03:59:50.395Z,5.3
2017-01-11T04:00:30.954Z,5.4
2017-01-11T04:01:11.529Z,5.4
2017-01-11T04:01:52.094Z,5.4
2017-01-11T04:02:32.595Z,5.38
2017-01-11T04:03:13.152Z,5.38
2017-01-11T04:03:53.696Z,5.42
2017-01-11T04:04:34.277Z,5.53
2017-01-11T04:05:14.797Z,5.45
2017-01-11T04:05:55.351Z,5.36
2017-01-11T04:06:35.912Z,5.36
2017-01-11T04:07:16.464Z,5.39
2017-01-11T04:07:57.007Z,5.43
2017-01-11T04:08:37.546Z,5.46
2017-01-11T04:09:18.102Z,5.42
2017-01-11T04:09:58.663Z,5.4
2017-01-11T04:10:39.163Z,5.38
2017-01-11T04:11:19.721Z,5.53
2017-01-11T04:12:00.247Z,5.48
2017-01-11T04:12:40.781Z,5.49
2017-01-11T04:13:21.333Z,5.6
2017-01-11T04:14:01.872Z,5.6
2017-01-11T04:14:42.442Z,5.6
2017-01-11T04:15:23.003Z,5.68
2017-01-11T04:16:03.538Z,5.61
2017-01-11T04:16:44.098Z,5.6
2017-01-11T04:17:24.651Z,5.53
2017-01-11T04:18:05.208Z,5.4
2017-01-11T04:18:45.730Z,5.53
2017-01-11T04:19:26.296Z,5.56
2017-01-11T04:20:06.847Z,5.57
2017-01-11T04:20:47.385Z,5.61
2017-01-11T04:21:27.905Z,5.65
2017-01-11T04:22:08.468Z,5.67
2017-01-11T04:22:49.065Z,5.63
2017-01-11T04:23:29.604Z,5.54
2017-01-11T04:24:10.147Z,5.64
2017-01-11T04:24:50.676Z,5.71
2017-01-11T04:25:31.217Z,5.6
2017-01-11T04:26:11.776Z,5.57
2017-01-11T04:26:52.333Z,5.61
2017-01-11T04:27:32.867Z,5.65
2017-01-11T04:28:13.400Z,5.61
2017-01-11T04:28:53.912Z,5.57
2017-01-11T04:29:34.504Z,5.65
2017-01-11T04:30:15.024Z,5.68
2017-01-11T04:30:55.558Z,5.68
2017-01-11T04:31:36.123Z,5.57
2017-01-11T04:32:16.650Z,5.56
2017-01-11T04:32:57.226Z,5.61
2017-01-11T04:33:37.762Z,5.53
2017-01-11T04:34:18.321Z,5.67
2017-01-11T04:34:58.873Z,5.54
2017-01-11T04:35:39.397Z,5.6
2017-01-11T04:36:19.949Z,5.61
2017-01-11T04:37:00.490Z,5.57
2017-01-11T04:37:41.033Z,5.61
2017-01-11T04:38:21.563Z,5.6
2017-01-11T04:39:02.116Z,5.53
2017-01-11T04:39:42.666Z,5.63
2017-01-11T04:40:23.206Z,5.65
2017-01-11T04:41:03.759Z,5.49
2017-01-11T04:41:44.305Z,5.6
2017-01-11T04:42:24.848Z,5.64
2017-01-11T04:43:05.363Z,5.72
2017-01-11T04:43:45.912Z,5.53
2017-01-11T04:44:26.447Z,5.6
2017-01-11T04:45:07.003Z,5.54
2017-01-11T04:45:47.546Z,5.53
2017-01-11T04:46:28.088Z,5.61
2017-01-11T04:47:08.643Z,5.57
2017-01-11T04:47:49.184Z,5.46
2017-01-11T04:48:29.734Z,5.57
2017-01-11T04:49:10.313Z,5.53
2017-01-11T04:49:50.846Z,5.56
2017-01-11T04:50:31.392Z,5.67
2017-01-11T04:51:11.970Z,5.67
2017-01-11T04:51:52.493Z,5.68
2017-01-11T04:52:33.042Z,5.64
2017-01-11T04:53:13.575Z,5.63
2017-01-11T04:53:54.120Z,5.64
2017-01-11T04:54:34.673Z,5.63
2017-01-11T04:55:15.248Z,5.68
2017-01-11T04:55:55.817Z,5.78
2017-01-11T04:56:36.317Z,5.81
2017-01-11T04:57:16.891Z,5.72
2017-01-11T04:57:57.416Z,5.85
2017-01-11T04:58:37.952Z,5.75
2017-01-11T04:59:18.454Z,5.74
2017-01-11T04:59:58.991Z,5.83
2017-01-11T05:00:39.551Z,5.79
2017-01-11T05:01:20.103Z,5.72
2017-01-11T05:02:00.631Z,5.75
2017-01-11T05:02:41.199Z,5.71
2017-01-11T05:03:21.738Z,5.71
2017-01-11T05:04:02.279Z,5.76
2017-01-11T05:04:42.831Z,5.86
2017-01-11T05:05:23.379Z,5.72
2017-01-11T05:06:03.935Z,5.9
2017-01-11T05:06:44.484Z,5.71
2017-01-11T05:07:25.025Z,5.81
2017-01-11T05:08:05.550Z,5.79
2017-01-11T05:08:46.072Z,5.67
2017-01-11T05:09:26.619Z,5.74
2017-01-11T05:10:07.159Z,5.79
2017-01-11T05:10:47.696Z,5.61
2017-01-11T05:11:28.254Z,5.78
2017-01-11T05:12:08.791Z,5.79
2017-01-11T05:12:49.308Z,5.72
2017-01-11T05:13:29.855Z,5.68
2017-01-11T05:14:10.402Z,5.76
2017-01-11T05:14:50.991Z,5.76
2017-01-11T05:15:31.546Z,5.72
2017-01-11T05:16:12.093Z,5.67
2017-01-11T05:16:52.636Z,5.75
2017-01-11T05:17:33.172Z,5.71
2017-01-11T05:18:13.723Z,5.78
2017-01-11T05:18:54.241Z,5.74
2017-01-11T05:19:34.807Z,5.65
2017-01-11T05:20:15.350Z,5.64
2017-01-11T05:20:55.916Z,5.76
2017-01-11T05:21:36.444Z,5.74
2017-01-11T05:22:16.975Z,5.79
2017-01-11T05:22:57.511Z,5.83
2017-01-11T05:23:38.062Z,5.74
2017-01-11T05:24:18.591Z,5.63
2017-01-11T05:24:59.116Z,5.64
2017-01-11T05:25:39.655Z,5.72
2017-01-11T05:26:20.208Z,5.68
2017-01-11T05:27:00.762Z,5.65
2017-01-11T05:27:41.300Z,5.71
2017-01-11T05:28:21.841Z,5.76
2017-01-11T05:29:02.397Z,5.72
2017-01-11T05:29:42.927Z,5.75
2017-01-11T05:30:23.469Z,5.75
2017-01-11T05:31:04.013Z,5.67
2017-01-11T05:31:44.581Z,5.68
2017-01-11T05:32:25.154Z,5.57
2017-01-11T05:33:05.696Z,5.58
2017-01-11T05:33:46.243Z,5.65
2017-01-11T05:34:26.755Z,5.64
2017-01-11T05:35:07.312Z,5.75
2017-01-11T05:35:47.853Z,5.71
2017-01-11T05:36:28.418Z,5.56
2017-01-11T05:37:08.954Z,5.6
2017-01-11T05:37:49.508Z,5.57
2017-01-11T05:38:30.073Z,5.43
2017-01-11T05:39:10.631Z,5.45
2017-01-11T05:39:51.189Z,5.53
2017-01-11T05:40:31.741Z,5.51
2017-01-11T05:41:12.309Z,5.68
2017-01-11T05:41:52.832Z,5.74
2017-01-11T05:42:33.374Z,5.71
2017-01-11T05:43:13.923Z,5.72
2017-01-11T05:43:54.461Z,5.63
2017-01-11T05:44:35.026Z,5.67
2017-01-11T05:45:15.590Z,5.67
2017-01-11T05:45:56.129Z,5.67
2017-01-11T05:46:36.679Z,5.61
2017-01-11T05:47:17.221Z,5.68
2017-01-11T05:47:57.776Z,5.74
2017-01-11T05:48:39.143Z,5.72
2017-01-11T05:49:18.839Z,5.64
2017-01-11T05:49:59.381Z,5.71
2017-01-11T05:50:39.891Z,5.68
2017-01-11T05:51:20.444Z,5.86
2017-01-11T05:52:00.986Z,5.86
2017-01-11T05:52:41.534Z,5.74
2017-01-11T05:53:22.102Z,5.78
2017-01-11T05:54:02.625Z,5.82
2017-01-11T05:54:43.174Z,5.81
2017-01-11T05:55:23.723Z,5.85
2017-01-11T05:56:04.286Z,5.82
2017-01-11T05:56:44.835Z,5.79
2017-01-11T05:57:25.368Z,5.75
2017-01-11T05:58:05.928Z,5.64
2017-01-11T05:58:46.454Z,5.46
2017-01-11T05:59:27.009Z,5.43
2017-01-11T06:00:07.569Z,5.45
2017-01-11T06:00:48.107Z,5.48
2017-01-11T06:01:28.627Z,5.51
2017-01-11T06:02:09.152Z,5.51
2017-01-11T06:02:49.712Z,5.53
2017-01-11T06:03:30.246Z,5.46
2017-01-11T06:04:10.828Z,5.53
2017-01-11T06:04:51.340Z,5.49
2017-01-11T06:05:31.930Z,5.45
2017-01-11T06:06:12.484Z,5.48
2017-01-11T06:06:52.988Z,5.58
2017-01-11T06:07:33.527Z,5.57
2017-01-11T06:08:14.084Z,5.53
2017-01-11T06:08:54.588Z,5.53
2017-01-11T06:09:35.132Z,5.45
2017-01-11T06:10:15.659Z,5.61
2017-01-11T06:10:56.204Z,5.57
2017-01-11T06:11:36.823Z,5.45
2017-01-11T06:12:17.363Z,5.51
2017-01-11T06:12:57.905Z,5.57
2017-01-11T06:13:38.448Z,5.57
2017-01-11T06:14:18.961Z,5.6
2017-01-11T06:14:59.476Z,5.58
2017-01-11T06:15:40.000Z,5.61
2017-01-11T06:16:20.513Z,5.63
2017-01-11T06:18:16.375Z,5.61
2017-01-11T06:18:57.197Z,5.61
2017-01-11T06:19:37.770Z,5.53
2017-01-11T06:20:18.345Z,5.42
2017-01-11T06:20:58.853Z,5.38
2017-01-11T06:21:39.408Z,5.35
2017-01-11T06:22:19.960Z,5.42
2017-01-11T06:23:00.461Z,5.38
2017-01-11T06:23:40.991Z,5.39
2017-01-11T06:24:21.493Z,5.51
2017-01-11T06:25:02.014Z,5.42
2017-01-11T06:25:42.531Z,5.45
2017-01-11T06:26:23.066Z,5.39
2017-01-11T06:27:03.560Z,5.57
2017-01-11T06:27:44.113Z,5.54
2017-01-11T06:28:24.643Z,5.51
2017-01-11T06:29:05.175Z,5.57
2017-01-11T06:29:45.703Z,5.61
2017-01-11T06:30:26.250Z,5.6
2017-01-11T06:31:06.780Z,5.61
2017-01-11T06:31:47.956Z,5.68
2017-01-11T06:32:28.469Z,5.72
2017-01-11T06:33:09.159Z,5.72
2017-01-11T06:33:50.923Z,5.89
2017-01-11T06:34:35.192Z,5.83
2017-01-11T06:35:15.725Z,5.85
2017-01-11T06:35:56.288Z,6.09
2017-01-11T06:36:36.869Z,6.25
2017-01-11T06:37:17.442Z,6.36
2017-01-11T06:37:57.916Z,6.25
2017-01-11T06:38:38.476Z,6.15
2017-01-11T06:39:18.976Z,6.09
2017-01-11T06:39:59.574Z,5.99
2017-01-11T06:40:40.159Z,5.79
2017-01-11T06:41:20.763Z,5.85
2017-01-11T06:42:01.266Z,5.9
2017-01-11T06:42:41.816Z,5.97
2017-01-11T06:43:22.282Z,5.96
2017-01-11T06:44:02.846Z,5.96
2017-01-11T06:44:43.403Z,6
2017-01-11T06:45:23.837Z,5.9
2017-01-11T06:46:04.383Z,6
2017-01-11T06:46:44.910Z,5.94
2017-01-11T06:47:25.441Z,5.97
2017-01-11T06:48:05.980Z,5.85
2017-01-11T06:48:46.585Z,5.96
2017-01-11T06:49:27.131Z,5.89
2017-01-11T06:50:07.596Z,5.89
2017-01-11T06:50:48.144Z,5.86
2017-01-11T06:51:28.681Z,5.82
2017-01-11T06:52:09.232Z,5.78
2017-01-11T06:52:49.729Z,5.9
2017-01-11T06:53:30.246Z,5.99
2017-01-11T06:54:10.800Z,5.94
2017-01-11T06:54:51.366Z,5.86
2017-01-11T06:55:31.953Z,5.83
2017-01-11T06:56:12.444Z,5.89
2017-01-11T06:56:52.991Z,5.74
2017-01-11T06:57:33.504Z,5.76
2017-01-11T06:58:14.049Z,5.75
2017-01-11T06:58:54.548Z,5.74
2017-01-11T06:59:35.118Z,5.75
2017-01-11T07:00:15.612Z,5.81
2017-01-11T07:00:56.153Z,5.85
2017-01-11T07:01:36.662Z,5.81
2017-01-11T07:02:17.313Z,5.72
2017-01-11T07:02:57.960Z,5.74
2017-01-11T07:03:38.467Z,5.85
2017-01-11T07:04:18.963Z,5.76
2017-01-11T07:04:59.551Z,5.9
2017-01-11T07:05:40.037Z,6
2017-01-11T07:06:20.604Z,5.96
2017-01-11T07:07:01.134Z,6.04
2017-01-11T07:07:41.634Z,5.94
2017-01-11T07:08:22.193Z,6.15
2017-01-11T07:09:02.684Z,6.01
2017-01-11T07:09:43.289Z,6.08
2017-01-11T07:10:23.711Z,6.09
2017-01-11T07:11:04.268Z,6.37
2017-01-11T07:11:44.794Z,6.21
2017-01-11T07:12:25.291Z,6.25
2017-01-11T07:13:05.814Z,6.09
2017-01-11T07:13:46.353Z,6.3
2017-01-11T07:14:26.923Z,6.25
2017-01-11T07:15:07.455Z,6.34
2017-01-11T07:15:47.998Z,6.44
2017-01-11T07:16:28.494Z,6.46
2017-01-11T07:17:09.024Z,6.17
2017-01-11T07:17:49.529Z,6.19
2017-01-11T07:18:30.050Z,6.06
2017-01-11T07:19:10.549Z,5.99
2017-01-11T07:19:51.077Z,6
2017-01-11T07:20:31.601Z,5.94
2017-01-11T07:21:12.150Z,6.11
2017-01-11T07:21:52.676Z,6.33
2017-01-11T07:22:33.163Z,6.37
2017-01-11T07:23:13.754Z,6.54
2017-01-11T07:23:54.231Z,6.46
2017-01-11T07:24:34.752Z,6.27
2017-01-11T07:25:15.262Z,6.27
2017-01-11T07:25:55.826Z,6.14
2017-01-11T07:26:36.349Z,5.99
2017-01-11T07:27:16.909Z,6.04
2017-01-11T07:27:57.448Z,6.33
2017-01-11T07:28:38.026Z,6.48
2017-01-11T07:29:18.569Z,6.46
2017-01-11T07:29:59.074Z,6.18
2017-01-11T07:30:39.621Z,6.04
2017-01-11T07:31:20.204Z,6
2017-01-11T07:32:00.764Z,6
2017-01-11T07:32:41.245Z,6.04
2017-01-11T07:33:21.776Z,6.09
2017-01-11T07:34:02.375Z,6.09
2017-01-11T07:34:42.920Z,6.01
2017-01-11T07:35:23.441Z,6.09
2017-01-11T07:36:03.988Z,6.21
2017-01-11T07:36:44.481Z,6.17
2017-01-11T07:37:25.019Z,6.17
2017-01-11T07:38:05.524Z,6.3
2017-01-11T07:38:46.048Z,6.15
2017-01-11T07:39:26.562Z,6.12
2017-01-11T07:40:07.093Z,6.19
2017-01-11T07:40:47.638Z,5.99
2017-01-11T07:41:28.174Z,6.17
2017-01-11T07:42:08.728Z,6.19
2017-01-11T07:42:49.304Z,6.25
2017-01-11T07:43:29.809Z,6.03
2017-01-11T07:44:10.367Z,5.96
2017-01-11T07:44:50.906Z,6.17
2017-01-11T07:45:31.418Z,6.4
2017-01-11T07:46:11.934Z,6.71
2017-01-11T07:46:52.512Z,6.49
2017-01-11T07:47:33.062Z,6.44
2017-01-11T07:48:13.593Z,6.51
2017-01-11T07:48:54.147Z,6.46
2017-01-11T07:49:34.689Z,6.4
2017-01-11T07:50:15.243Z,6.27
2017-01-11T07:50:55.784Z,6.4
2017-01-11T07:51:36.270Z,6.4
2017-01-11T07:52:16.798Z,6.58
2017-01-11T07:52:57.327Z,6.59
2017-01-11T07:53:37.894Z,6.59
2017-01-11T07:54:18.452Z,6.46
2017-01-11T07:54:58.947Z,6.52
2017-01-11T07:55:39.445Z,6.69
2017-01-11T07:56:20.110Z,6.7
2017-01-11T07:57:00.630Z,7.16
2017-01-11T07:57:41.189Z,7.34
2017-01-11T07:58:21.715Z,6.77
2017-01-11T07:59:02.181Z,6.76
2017-01-11T07:59:42.765Z,6.69
2017-01-11T08:00:23.267Z,6.58
2017-01-11T08:01:03.779Z,6.54
2017-01-11T08:01:44.308Z,6.69
2017-01-11T08:02:24.837Z,6.85
2017-01-11T08:03:05.369Z,6.66
2017-01-11T08:03:45.947Z,6.66
2017-01-11T08:04:26.533Z,6.71
2017-01-11T08:05:07.089Z,6.71
2017-01-11T08:05:47.591Z,6.77
2017-01-11T08:06:28.126Z,6.74
2017-01-11T08:07:08.917Z,6.74
2017-01-11T08:07:50.461Z,6.73
2017-01-11T08:08:30.325Z,6.48
2017-01-11T08:09:10.817Z,6.51
2017-01-11T08:09:51.414Z,6.49
2017-01-11T08:10:31.924Z,6.52
2017-01-11T08:11:12.460Z,6.54
2017-01-11T08:11:52.997Z,6.52
2017-01-11T08:12:33.614Z,6.59
2017-01-11T08:13:14.130Z,6.7
2017-01-11T08:13:54.685Z,6.58
2017-01-11T08:14:35.187Z,6.56
2017-01-11T08:15:15.760Z,6.61
2017-01-11T08:15:56.339Z,6.76
2017-01-11T08:16:36.855Z,6.74
2017-01-11T08:17:17.443Z,6.69
2017-01-11T08:17:57.982Z,6.77
2017-01-11T08:18:38.531Z,6.81
2017-01-11T08:19:19.055Z,6.89
2017-01-11T08:19:59.592Z,6.99
2017-01-11T08:20:40.182Z,6.79
2017-01-11T08:21:20.634Z,6.79
2017-01-11T08:22:01.132Z,6.85
2017-01-11T08:22:41.657Z,6.85
2017-01-11T08:23:22.203Z,6.87
2017-01-11T08:24:02.726Z,6.95
2017-01-11T08:24:43.206Z,7.02
2017-01-11T08:25:23.782Z,6.99
2017-01-11T08:26:04.324Z,7.12
2017-01-11T08:26:44.841Z,7.05
2017-01-11T08:27:25.356Z,6.91
2017-01-11T08:28:05.904Z,6.89
2017-01-11T08:28:46.437Z,6.98
2017-01-11T08:29:26.960Z,6.8
2017-01-11T08:30:07.482Z,6.8
2017-01-11T08:30:48.156Z,6.97
2017-01-11T08:31:28.737Z,6.92
2017-01-11T08:32:09.292Z,7.02
2017-01-11T08:32:49.836Z,7.16
2017-01-11T08:33:30.355Z,7.37
2017-01-11T08:34:10.894Z,7.4
2017-01-11T08:34:51.442Z,7.48
2017-01-11T08:35:32.016Z,7.4
2017-01-11T08:36:12.539Z,7.42
2017-01-11T08:36:53.072Z,7.45
2017-01-11T08:37:33.593Z,7.46
2017-01-11T08:38:14.109Z,7.42
2017-01-11T08:38:54.640Z,7.39
2017-01-11T08:39:35.206Z,7.43
2017-01-11T08:40:15.691Z,7.4
2017-01-11T08:40:56.224Z,7.48
2017-01-11T08:41:36.728Z,7.39
2017-01-11T08:42:17.224Z,7.55
2017-01-11T08:42:57.787Z,7.46
2017-01-11T08:43:38.436Z,7.55
2017-01-11T08:44:19.046Z,7.52
2017-01-11T08:44:59.563Z,7.58
2017-01-11T08:45:40.067Z,7.39
2017-01-11T08:46:20.593Z,7.43
2017-01-11T08:47:01.159Z,7.5
2017-01-11T08:47:41.741Z,7.52
2017-01-11T08:48:22.251Z,7.57
2017-01-11T08:49:02.835Z,7.5
2017-01-11T08:49:43.364Z,7.64
2017-01-11T08:50:23.898Z,7.61
2017-01-11T08:51:04.395Z,7.71
2017-01-11T08:51:44.983Z,7.57
2017-01-11T08:52:25.530Z,7.8
2017-01-11T08:53:06.037Z,8.08
2017-01-11T08:53:46.570Z,8.25
2017-01-11T08:54:27.115Z,8.41
2017-01-11T08:55:07.657Z,8.53
2017-01-11T08:55:48.222Z,8.59
2017-01-11T08:56:28.765Z,8.65
2017-01-11T08:57:09.320Z,8.62
2017-01-11T08:57:49.931Z,8.58
2017-01-11T08:58:30.376Z,8.36
2017-01-11T08:59:10.929Z,8.34
2017-01-11T08:59:51.506Z,8.23
2017-01-11T09:00:31.999Z,8.08
2017-01-11T09:01:12.539Z,8.08
2017-01-11T09:01:53.107Z,8.08
2017-01-11T09:02:33.832Z,8.15
2017-01-11T09:03:14.299Z,8.15
2017-01-11T09:03:54.915Z,8.22
2017-01-11T09:04:35.421Z,8.12
2017-01-11T09:05:15.949Z,8.16
2017-01-11T09:05:56.503Z,8.38
2017-01-11T09:06:37.021Z,8.5
2017-01-11T09:07:17.605Z,8.55
2017-01-11T09:07:58.150Z,8.61
2017-01-11T09:08:38.655Z,8.7
2017-01-11T09:09:19.194Z,8.76
2017-01-11T09:09:59.714Z,8.73
2017-01-11T09:10:40.235Z,8.8
2017-01-11T09:11:20.845Z,8.8
2017-01-11T09:12:01.358Z,8.53
2017-01-11T09:12:41.940Z,8.55
2017-01-11T09:13:22.493Z,8.58
2017-01-11T09:14:03.026Z,8.45
2017-01-11T09:14:43.511Z,8.48
2017-01-11T09:15:24.061Z,8.43
2017-01-11T09:16:04.644Z,8.45